Allendale, Wyoming
Current Conditions -  °F | °C
As of 12:53 PM on Saturday 25 Oct 2014 (Local Time) from KCPR Reporting Station
Clear Clear  
Wind Chill: 74°   Ceiling: Unl
Heat Index: 74°   Visibility: 10mi
Dew Point: 27°   Wind: 17mph
Humidity: 18%   Direction: 220°SW
Pressure: 30.1"   Gusts: 28mph
Location:  42.84°N, 106.275°W
Report Text: KCPR 251853Z 22015G24KT 10SM CLR 23/M03 A3010 RMK AO2 SLP150 T02331028
Loading
Personal Weather Stations






























Interactive Weather Map
Tropical Storm Tracking
New forecast layout! Learn more

10-Day Weather Forecast

Advertisements
Track Severe Weather on mobile